Historique des mesures à Cassis (13260), France
Quotidien Résumé Janvier 6, 2020 Unités:  Métrique    US   Métrique/US
Quotidien Hebdomadaire Mensuel Annuel
  Maximum: Minimum: Moyenne:
Température: 27.9 °C 19.6 °C 23.2 °C
Point de rosée: 16.9 °C 8.3 °C 14.3 °C
Humidité: 81% 36% 60%
Vitesse du vent: 17.6km/h 0km/h 6.3km/h
Rafales: 33.1km/h - -
Vent- - SW
Pression: 1013.2 hPa 1009.2 hPa -
Précipitations: 0.0 mm    
Historical Graphs
 
 
Mesures pour : Janvier 6, 2020
Heure Temperature Point de rosée Pression Vent Vitesse du vent Rafales Humidité Pluie (par heure)
00:11 20.3 °C 16.9 °C 1013.2 hPa Calm   6.1 km/h 81% 0.0 mm
01:11 20 °C 16.5 °C 1012.8 hPa Calm     80% 0.0 mm
02:11 19.7 °C 16.4 °C 1012.1 hPa Calm   9.4 km/h 81% 0.0 mm
03:11 19.6 °C 16.3 °C 1011.6 hPa ENE 5.8 km/h 5.8 km/h 81% 0.0 mm
04:11 19.9 °C 16.2 °C 1010.9 hPa NE 2.9 km/h 13.7 km/h 79% 0.0 mm
05:11 19.9 °C 16 °C 1010.9 hPa NE 1.8 km/h 5.4 km/h 78% 0.0 mm
06:12 19.6 °C 15.9 °C 1010.4 hPa NW 2.2 km/h 6.1 km/h 79% 0.0 mm
07:12 19.6 °C 15.7 °C 1010.7 hPa North 5.8 km/h 7.2 km/h 78% 0.0 mm
08:12 21.1 °C 16.2 °C 1010.6 hPa Calm   8.3 km/h 74% 0.0 mm
09:11 21.8 °C 16.1 °C 1010.7 hPa NE 4.7 km/h 9 km/h 70% 0.0 mm
10:11 23.1 °C 15.6 °C 1010.8 hPa Calm   9 km/h 63% 0.0 mm
11:11 25.9 °C 15.3 °C 1010.9 hPa NW 9.4 km/h 9.4 km/h 52% 0.0 mm
12:12 26.9 °C 14.6 °C 1010.7 hPa West 16.6 km/h 33.1 km/h 47% 0.0 mm
13:11 27.1 °C 14.1 °C 1010.6 hPa NNW 4 km/h 27 km/h 45% 0.0 mm
14:12 27.6 °C 11.5 °C 1010.2 hPa NW 17.3 km/h 29.5 km/h 37% 0.0 mm
15:12 27.9 °C 11.4 °C 1010.2 hPa NNW 6.8 km/h 33.1 km/h 36% 0.0 mm
16:12 26.7 °C 14.4 °C 1010.0 hPa WNW 9.7 km/h 30.6 km/h 47% 0.0 mm
17:11 26.2 °C 14.3 °C 1009.9 hPa West 17.6 km/h 23.4 km/h 48% 0.0 mm
18:11 25.5 °C 13.7 °C 1009.5 hPa NW 7.9 km/h 27.7 km/h 48% 0.0 mm
19:12 25.3 °C 14.5 °C 1009.2 hPa WNW 10.8 km/h 23 km/h 51% 0.0 mm
20:11 23.5 °C 14.2 °C 1009.3 hPa WNW 2.2 km/h 12.6 km/h 56% 0.0 mm
21:11 23.8 °C 10.4 °C 1009.8 hPa WNW 13.7 km/h 21.6 km/h 43% 0.0 mm
22:11 23.3 °C 9 °C 1010.1 hPa NNW 5.4 km/h 25.6 km/h 40% 0.0 mm
23:11 23 °C 8.3 °C 1010.0 hPa WNW 5.4 km/h 13 km/h 39% 0.0 mm
Observations météo à CASSIS
WU-History script by Weather Underground - 2 mb